sensor_id;sensor_type;location;lat;lon;timestamp;temperature;humidity
7934;DHT22;4012;48.896;9.192;2023-12-20T00:00:55;6.40;99.90
7934;DHT22;4012;48.896;9.192;2023-12-20T00:03:21;6.40;99.90
7934;DHT22;4012;48.896;9.192;2023-12-20T00:05:47;6.40;99.90
7934;DHT22;4012;48.896;9.192;2023-12-20T00:08:13;6.40;99.90
7934;DHT22;4012;48.896;9.192;2023-12-20T00:10:38;6.40;99.90
7934;DHT22;4012;48.896;9.192;2023-12-20T00:13:04;6.40;99.90
7934;DHT22;4012;48.896;9.192;2023-12-20T00:15:29;6.40;99.90
7934;DHT22;4012;48.896;9.192;2023-12-20T00:17:55;6.40;99.90
7934;DHT22;4012;48.896;9.192;2023-12-20T00:20:21;6.40;99.90
7934;DHT22;4012;48.896;9.192;2023-12-20T00:22:46;6.40;99.90
7934;DHT22;4012;48.896;9.192;2023-12-20T00:25:12;6.40;99.90
7934;DHT22;4012;48.896;9.192;2023-12-20T00:27:38;6.40;99.90
7934;DHT22;4012;48.896;9.192;2023-12-20T00:30:03;6.30;99.90
7934;DHT22;4012;48.896;9.192;2023-12-20T00:32:29;6.20;99.90
7934;DHT22;4012;48.896;9.192;2023-12-20T00:34:55;6.10;99.90
7934;DHT22;4012;48.896;9.192;2023-12-20T00:37:21;6.10;99.90
7934;DHT22;4012;48.896;9.192;2023-12-20T00:39:46;6.10;99.90
7934;DHT22;4012;48.896;9.192;2023-12-20T00:42:12;6.00;99.90
7934;DHT22;4012;48.896;9.192;2023-12-20T00:44:37;5.90;99.90
7934;DHT22;4012;48.896;9.192;2023-12-20T00:47:03;5.90;99.90
7934;DHT22;4012;48.896;9.192;2023-12-20T00:49:28;5.90;99.90
7934;DHT22;4012;48.896;9.192;2023-12-20T00:51:54;5.90;99.90
7934;DHT22;4012;48.896;9.192;2023-12-20T00:54:20;5.80;99.90
7934;DHT22;4012;48.896;9.192;2023-12-20T00:56:45;5.80;99.90
7934;DHT22;4012;48.896;9.192;2023-12-20T00:59:11;5.80;99.90
7934;DHT22;4012;48.896;9.192;2023-12-20T01:01:36;5.80;99.90
7934;DHT22;4012;48.896;9.192;2023-12-20T01:04:02;5.80;99.90
7934;DHT22;4012;48.896;9.192;2023-12-20T01:06:27;5.80;99.90
7934;DHT22;4012;48.896;9.192;2023-12-20T01:08:53;5.80;99.90
7934;DHT22;4012;48.896;9.192;2023-12-20T01:11:19;5.80;99.90
7934;DHT22;4012;48.896;9.192;2023-12-20T01:13:44;5.90;99.90
7934;DHT22;4012;48.896;9.192;2023-12-20T01:16:11;5.90;99.90
7934;DHT22;4012;48.896;9.192;2023-12-20T01:18:37;5.90;99.90
7934;DHT22;4012;48.896;9.192;2023-12-20T01:21:04;6.00;99.90
7934;DHT22;4012;48.896;9.192;2023-12-20T01:23:30;6.00;99.90
7934;DHT22;4012;48.896;9.192;2023-12-20T01:25:56;6.00;99.90
7934;DHT22;4012;48.896;9.192;2023-12-20T01:28:21;6.00;99.90
7934;DHT22;4012;48.896;9.192;2023-12-20T01:30:47;6.00;99.90
7934;DHT22;4012;48.896;9.192;2023-12-20T01:33:13;5.90;99.90
7934;DHT22;4012;48.896;9.192;2023-12-20T01:35:38;5.90;99.90
7934;DHT22;4012;48.896;9.192;2023-12-20T01:38:04;5.90;99.90
7934;DHT22;4012;48.896;9.192;2023-12-20T01:40:30;5.80;99.90
7934;DHT22;4012;48.896;9.192;2023-12-20T01:43:04;5.90;99.90
7934;DHT22;4012;48.896;9.192;2023-12-20T01:45:30;5.90;99.90
7934;DHT22;4012;48.896;9.192;2023-12-20T01:47:57;5.90;99.90
7934;DHT22;4012;48.896;9.192;2023-12-20T01:50:24;5.80;99.90
7934;DHT22;4012;48.896;9.192;2023-12-20T01:52:50;5.80;99.90
7934;DHT22;4012;48.896;9.192;2023-12-20T01:55:19;5.80;99.90
7934;DHT22;4012;48.896;9.192;2023-12-20T01:57:45;5.80;99.90
7934;DHT22;4012;48.896;9.192;2023-12-20T02:00:12;5.80;99.90
7934;DHT22;4012;48.896;9.192;2023-12-20T02:02:41;5.80;99.90
7934;DHT22;4012;48.896;9.192;2023-12-20T02:05:09;5.80;99.90
7934;DHT22;4012;48.896;9.192;2023-12-20T02:07:34;5.80;99.90
7934;DHT22;4012;48.896;9.192;2023-12-20T02:10:01;5.80;99.90
7934;DHT22;4012;48.896;9.192;2023-12-20T02:12:26;5.90;99.90
7934;DHT22;4012;48.896;9.192;2023-12-20T02:14:52;5.90;99.90
7934;DHT22;4012;48.896;9.192;2023-12-20T02:17:19;5.90;99.90
7934;DHT22;4012;48.896;9.192;2023-12-20T02:19:45;5.90;99.90
7934;DHT22;4012;48.896;9.192;2023-12-20T02:22:11;5.90;99.90
7934;DHT22;4012;48.896;9.192;2023-12-20T02:24:37;5.90;99.90
7934;DHT22;4012;48.896;9.192;2023-12-20T02:27:03;5.90;99.90
7934;DHT22;4012;48.896;9.192;2023-12-20T02:29:31;6.00;99.90
7934;DHT22;4012;48.896;9.192;2023-12-20T02:31:57;6.00;99.90
7934;DHT22;4012;48.896;9.192;2023-12-20T02:34:23;6.10;99.90
7934;DHT22;4012;48.896;9.192;2023-12-20T02:36:48;6.10;99.90
7934;DHT22;4012;48.896;9.192;2023-12-20T02:39:14;6.10;99.90
7934;DHT22;4012;48.896;9.192;2023-12-20T02:41:40;6.10;99.90
7934;DHT22;4012;48.896;9.192;2023-12-20T02:44:05;6.10;99.90
7934;DHT22;4012;48.896;9.192;2023-12-20T02:46:31;6.10;99.90
7934;DHT22;4012;48.896;9.192;2023-12-20T02:48:56;6.10;99.90
7934;DHT22;4012;48.896;9.192;2023-12-20T02:51:22;6.10;99.90
7934;DHT22;4012;48.896;9.192;2023-12-20T02:53:47;6.10;99.90
7934;DHT22;4012;48.896;9.192;2023-12-20T02:56:13;6.20;99.90
7934;DHT22;4012;48.896;9.192;2023-12-20T02:58:40;6.20;99.90
7934;DHT22;4012;48.896;9.192;2023-12-20T03:01:05;6.20;99.90
7934;DHT22;4012;48.896;9.192;2023-12-20T03:03:31;6.20;99.90
7934;DHT22;4012;48.896;9.192;2023-12-20T03:05:57;6.20;99.90
7934;DHT22;4012;48.896;9.192;2023-12-20T03:08:23;6.20;99.90
7934;DHT22;4012;48.896;9.192;2023-12-20T03:10:48;6.10;99.90
7934;DHT22;4012;48.896;9.192;2023-12-20T03:13:14;6.10;99.90
7934;DHT22;4012;48.896;9.192;2023-12-20T03:15:40;6.10;99.90
7934;DHT22;4012;48.896;9.192;2023-12-20T03:18:05;6.10;99.90
7934;DHT22;4012;48.896;9.192;2023-12-20T03:20:31;6.10;99.90
7934;DHT22;4012;48.896;9.192;2023-12-20T03:23:00;6.00;99.90
7934;DHT22;4012;48.896;9.192;2023-12-20T03:25:26;6.10;99.90
7934;DHT22;4012;48.896;9.192;2023-12-20T03:27:52;6.00;99.90
7934;DHT22;4012;48.896;9.192;2023-12-20T03:30:18;6.00;99.90
7934;DHT22;4012;48.896;9.192;2023-12-20T03:32:44;6.00;99.90
7934;DHT22;4012;48.896;9.192;2023-12-20T03:35:10;6.00;99.90
7934;DHT22;4012;48.896;9.192;2023-12-20T03:37:36;6.00;99.90
7934;DHT22;4012;48.896;9.192;2023-12-20T03:40:02;6.00;99.90
7934;DHT22;4012;48.896;9.192;2023-12-20T03:42:28;5.90;99.90
7934;DHT22;4012;48.896;9.192;2023-12-20T03:44:53;5.90;99.90
7934;DHT22;4012;48.896;9.192;2023-12-20T03:47:19;5.90;99.90
7934;DHT22;4012;48.896;9.192;2023-12-20T03:49:45;5.90;99.90
7934;DHT22;4012;48.896;9.192;2023-12-20T03:52:10;5.90;99.90
7934;DHT22;4012;48.896;9.192;2023-12-20T03:54:36;5.90;99.90
7934;DHT22;4012;48.896;9.192;2023-12-20T03:57:01;5.90;99.90
7934;DHT22;4012;48.896;9.192;2023-12-20T03:59:27;5.90;99.90
7934;DHT22;4012;48.896;9.192;2023-12-20T04:01:52;5.90;99.90
7934;DHT22;4012;48.896;9.192;2023-12-20T04:04:18;5.90;99.90
7934;DHT22;4012;48.896;9.192;2023-12-20T04:06:44;5.80;99.90
7934;DHT22;4012;48.896;9.192;2023-12-20T04:09:10;5.80;99.90
7934;DHT22;4012;48.896;9.192;2023-12-20T04:11:36;5.80;99.90
7934;DHT22;4012;48.896;9.192;2023-12-20T04:14:02;5.80;99.90
7934;DHT22;4012;48.896;9.192;2023-12-20T04:16:27;5.80;99.90
7934;DHT22;4012;48.896;9.192;2023-12-20T04:18:53;5.80;99.90
7934;DHT22;4012;48.896;9.192;2023-12-20T04:21:19;5.80;99.90
7934;DHT22;4012;48.896;9.192;2023-12-20T04:23:44;5.80;99.90
7934;DHT22;4012;48.896;9.192;2023-12-20T04:26:10;5.80;99.90
7934;DHT22;4012;48.896;9.192;2023-12-20T04:28:36;5.80;99.90
7934;DHT22;4012;48.896;9.192;2023-12-20T04:31:01;5.70;99.90
7934;DHT22;4012;48.896;9.192;2023-12-20T04:33:27;5.80;99.90
7934;DHT22;4012;48.896;9.192;2023-12-20T04:35:52;5.80;99.90
7934;DHT22;4012;48.896;9.192;2023-12-20T04:38:18;5.80;99.90
7934;DHT22;4012;48.896;9.192;2023-12-20T04:40:43;5.80;99.90
7934;DHT22;4012;48.896;9.192;2023-12-20T04:43:09;5.80;99.90
7934;DHT22;4012;48.896;9.192;2023-12-20T04:45:35;5.80;99.90
7934;DHT22;4012;48.896;9.192;2023-12-20T04:48:01;5.80;99.90
7934;DHT22;4012;48.896;9.192;2023-12-20T04:50:27;5.80;99.90
7934;DHT22;4012;48.896;9.192;2023-12-20T04:52:53;5.80;99.90
7934;DHT22;4012;48.896;9.192;2023-12-20T04:55:18;5.80;99.90
7934;DHT22;4012;48.896;9.192;2023-12-20T04:57:44;5.90;99.90
7934;DHT22;4012;48.896;9.192;2023-12-20T05:00:10;5.90;99.90
7934;DHT22;4012;48.896;9.192;2023-12-20T05:02:36;5.90;99.90
7934;DHT22;4012;48.896;9.192;2023-12-20T05:05:02;5.90;99.90
7934;DHT22;4012;48.896;9.192;2023-12-20T05:07:28;5.90;99.90
7934;DHT22;4012;48.896;9.192;2023-12-20T05:09:53;5.90;99.90
7934;DHT22;4012;48.896;9.192;2023-12-20T05:12:19;5.90;99.90
7934;DHT22;4012;48.896;9.192;2023-12-20T05:14:45;5.90;99.90
7934;DHT22;4012;48.896;9.192;2023-12-20T05:17:11;5.90;99.90
7934;DHT22;4012;48.896;9.192;2023-12-20T05:19:36;5.90;99.90
7934;DHT22;4012;48.896;9.192;2023-12-20T05:22:02;5.90;99.90
7934;DHT22;4012;48.896;9.192;2023-12-20T05:24:28;5.90;99.90
7934;DHT22;4012;48.896;9.192;2023-12-20T05:26:54;5.90;99.90
7934;DHT22;4012;48.896;9.192;2023-12-20T05:29:20;5.90;99.90
7934;DHT22;4012;48.896;9.192;2023-12-20T05:31:45;5.90;99.90
7934;DHT22;4012;48.896;9.192;2023-12-20T05:34:11;5.90;99.90
7934;DHT22;4012;48.896;9.192;2023-12-20T05:36:36;5.90;99.90
7934;DHT22;4012;48.896;9.192;2023-12-20T05:39:02;5.90;99.90
7934;DHT22;4012;48.896;9.192;2023-12-20T05:41:31;5.90;99.90
7934;DHT22;4012;48.896;9.192;2023-12-20T05:43:56;5.90;99.90
7934;DHT22;4012;48.896;9.192;2023-12-20T05:46:23;5.90;99.90
7934;DHT22;4012;48.896;9.192;2023-12-20T05:48:49;5.90;99.90
7934;DHT22;4012;48.896;9.192;2023-12-20T05:51:15;5.90;99.90
7934;DHT22;4012;48.896;9.192;2023-12-20T05:53:40;5.90;99.90
7934;DHT22;4012;48.896;9.192;2023-12-20T05:56:06;5.90;99.90
7934;DHT22;4012;48.896;9.192;2023-12-20T05:58:32;5.90;99.90
7934;DHT22;4012;48.896;9.192;2023-12-20T06:00:58;5.90;99.90
7934;DHT22;4012;48.896;9.192;2023-12-20T06:03:24;5.90;99.90
7934;DHT22;4012;48.896;9.192;2023-12-20T06:05:49;5.90;99.90
7934;DHT22;4012;48.896;9.192;2023-12-20T06:08:15;5.90;99.90
7934;DHT22;4012;48.896;9.192;2023-12-20T06:10:40;5.90;99.90
7934;DHT22;4012;48.896;9.192;2023-12-20T06:13:06;5.90;99.90
7934;DHT22;4012;48.896;9.192;2023-12-20T06:15:32;5.90;99.90
7934;DHT22;4012;48.896;9.192;2023-12-20T06:17:58;5.90;99.90
7934;DHT22;4012;48.896;9.192;2023-12-20T06:20:24;5.90;99.90
7934;DHT22;4012;48.896;9.192;2023-12-20T06:22:50;5.90;99.90
7934;DHT22;4012;48.896;9.192;2023-12-20T06:25:16;6.00;99.90
7934;DHT22;4012;48.896;9.192;2023-12-20T06:27:41;6.00;99.90
7934;DHT22;4012;48.896;9.192;2023-12-20T06:30:08;6.00;99.90
7934;DHT22;4012;48.896;9.192;2023-12-20T06:32:36;6.00;99.90
7934;DHT22;4012;48.896;9.192;2023-12-20T06:35:03;5.90;99.90
7934;DHT22;4012;48.896;9.192;2023-12-20T06:37:30;5.90;99.90
7934;DHT22;4012;48.896;9.192;2023-12-20T06:39:59;5.90;99.90
7934;DHT22;4012;48.896;9.192;2023-12-20T06:42:24;5.90;99.90
7934;DHT22;4012;48.896;9.192;2023-12-20T06:44:50;5.90;99.90
7934;DHT22;4012;48.896;9.192;2023-12-20T06:47:15;6.00;99.90
7934;DHT22;4012;48.896;9.192;2023-12-20T06:49:41;6.00;99.90
7934;DHT22;4012;48.896;9.192;2023-12-20T06:52:07;6.00;99.90
7934;DHT22;4012;48.896;9.192;2023-12-20T06:54:32;6.00;99.90
7934;DHT22;4012;48.896;9.192;2023-12-20T06:57:00;6.00;99.90
7934;DHT22;4012;48.896;9.192;2023-12-20T06:59:25;6.00;99.90
7934;DHT22;4012;48.896;9.192;2023-12-20T07:01:51;6.10;99.90
7934;DHT22;4012;48.896;9.192;2023-12-20T07:04:17;6.00;99.90
7934;DHT22;4012;48.896;9.192;2023-12-20T07:06:47;6.10;99.90
7934;DHT22;4012;48.896;9.192;2023-12-20T07:09:13;6.00;99.90
7934;DHT22;4012;48.896;9.192;2023-12-20T07:11:39;6.10;99.90
7934;DHT22;4012;48.896;9.192;2023-12-20T07:14:05;6.00;99.90
7934;DHT22;4012;48.896;9.192;2023-12-20T07:16:30;6.00;99.90
7934;DHT22;4012;48.896;9.192;2023-12-20T07:18:56;6.00;99.90
7934;DHT22;4012;48.896;9.192;2023-12-20T07:21:22;6.00;99.90
7934;DHT22;4012;48.896;9.192;2023-12-20T07:23:48;6.00;99.90
7934;DHT22;4012;48.896;9.192;2023-12-20T07:26:14;6.00;99.90
7934;DHT22;4012;48.896;9.192;2023-12-20T07:28:40;6.00;99.90
7934;DHT22;4012;48.896;9.192;2023-12-20T07:31:06;6.00;99.90
7934;DHT22;4012;48.896;9.192;2023-12-20T07:33:31;6.00;99.90
7934;DHT22;4012;48.896;9.192;2023-12-20T07:35:57;6.00;99.90
7934;DHT22;4012;48.896;9.192;2023-12-20T07:38:22;6.00;99.90
7934;DHT22;4012;48.896;9.192;2023-12-20T07:40:48;5.90;99.90
7934;DHT22;4012;48.896;9.192;2023-12-20T07:43:14;6.00;99.90
7934;DHT22;4012;48.896;9.192;2023-12-20T07:45:39;6.00;99.90
7934;DHT22;4012;48.896;9.192;2023-12-20T07:48:06;6.00;99.90
7934;DHT22;4012;48.896;9.192;2023-12-20T07:50:32;6.00;99.90
7934;DHT22;4012;48.896;9.192;2023-12-20T07:52:58;6.00;99.90
7934;DHT22;4012;48.896;9.192;2023-12-20T07:55:26;6.00;99.90
7934;DHT22;4012;48.896;9.192;2023-12-20T07:57:51;5.90;99.90
7934;DHT22;4012;48.896;9.192;2023-12-20T08:00:17;5.90;99.90
7934;DHT22;4012;48.896;9.192;2023-12-20T08:02:43;5.80;99.90
7934;DHT22;4012;48.896;9.192;2023-12-20T08:05:09;5.70;99.90
7934;DHT22;4012;48.896;9.192;2023-12-20T08:07:34;5.70;99.90
7934;DHT22;4012;48.896;9.192;2023-12-20T08:10:00;5.60;99.90
7934;DHT22;4012;48.896;9.192;2023-12-20T08:12:26;5.60;99.90
7934;DHT22;4012;48.896;9.192;2023-12-20T08:14:53;5.50;99.90
7934;DHT22;4012;48.896;9.192;2023-12-20T08:17:19;5.50;99.90
7934;DHT22;4012;48.896;9.192;2023-12-20T08:19:45;5.60;99.90
7934;DHT22;4012;48.896;9.192;2023-12-20T08:22:11;5.60;99.90
7934;DHT22;4012;48.896;9.192;2023-12-20T08:24:37;5.60;99.90
7934;DHT22;4012;48.896;9.192;2023-12-20T08:27:04;5.50;99.90
7934;DHT22;4012;48.896;9.192;2023-12-20T08:29:29;5.60;99.90
7934;DHT22;4012;48.896;9.192;2023-12-20T08:31:55;5.60;99.90
7934;DHT22;4012;48.896;9.192;2023-12-20T08:34:22;5.60;99.90
7934;DHT22;4012;48.896;9.192;2023-12-20T08:36:47;5.60;99.90
7934;DHT22;4012;48.896;9.192;2023-12-20T08:39:13;5.70;99.90
7934;DHT22;4012;48.896;9.192;2023-12-20T08:41:39;5.70;99.90
7934;DHT22;4012;48.896;9.192;2023-12-20T08:44:04;5.70;99.90
7934;DHT22;4012;48.896;9.192;2023-12-20T08:46:30;5.70;99.90
7934;DHT22;4012;48.896;9.192;2023-12-20T08:48:55;5.70;99.90
7934;DHT22;4012;48.896;9.192;2023-12-20T08:51:21;5.70;99.90
7934;DHT22;4012;48.896;9.192;2023-12-20T08:53:49;5.80;99.90
7934;DHT22;4012;48.896;9.192;2023-12-20T08:56:15;5.80;99.90
7934;DHT22;4012;48.896;9.192;2023-12-20T08:58:40;5.90;99.90
7934;DHT22;4012;48.896;9.192;2023-12-20T09:01:06;5.90;99.90
7934;DHT22;4012;48.896;9.192;2023-12-20T09:03:33;5.90;99.90
7934;DHT22;4012;48.896;9.192;2023-12-20T09:05:58;6.00;99.90
7934;DHT22;4012;48.896;9.192;2023-12-20T09:08:24;6.00;99.90
7934;DHT22;4012;48.896;9.192;2023-12-20T09:10:50;6.00;99.90
7934;DHT22;4012;48.896;9.192;2023-12-20T09:13:15;6.20;99.90
7934;DHT22;4012;48.896;9.192;2023-12-20T09:15:41;7.50;99.90
7934;DHT22;4012;48.896;9.192;2023-12-20T09:18:07;9.40;99.90
7934;DHT22;4012;48.896;9.192;2023-12-20T09:20:33;10.70;99.90
7934;DHT22;4012;48.896;9.192;2023-12-20T09:22:59;11.60;99.90
7934;DHT22;4012;48.896;9.192;2023-12-20T09:25:25;12.70;99.90
7934;DHT22;4012;48.896;9.192;2023-12-20T09:27:52;12.60;99.90
7934;DHT22;4012;48.896;9.192;2023-12-20T09:30:18;13.50;99.90
7934;DHT22;4012;48.896;9.192;2023-12-20T09:32:45;13.60;99.90
7934;DHT22;4012;48.896;9.192;2023-12-20T09:35:11;13.60;99.90
7934;DHT22;4012;48.896;9.192;2023-12-20T09:37:36;13.70;99.90
7934;DHT22;4012;48.896;9.192;2023-12-20T09:40:03;13.70;99.90
7934;DHT22;4012;48.896;9.192;2023-12-20T09:45:09;13.60;99.90
7934;DHT22;4012;48.896;9.192;2023-12-20T09:47:37;12.60;99.90
7934;DHT22;4012;48.896;9.192;2023-12-20T09:50:03;12.60;99.90
7934;DHT22;4012;48.896;9.192;2023-12-20T09:52:29;13.30;99.90
7934;DHT22;4012;48.896;9.192;2023-12-20T09:54:55;13.90;99.90
7934;DHT22;4012;48.896;9.192;2023-12-20T09:57:22;13.60;99.90
7934;DHT22;4012;48.896;9.192;2023-12-20T09:59:48;14.60;99.90
7934;DHT22;4012;48.896;9.192;2023-12-20T10:02:14;14.60;99.90
7934;DHT22;4012;48.896;9.192;2023-12-20T10:04:47;13.30;99.90
7934;DHT22;4012;48.896;9.192;2023-12-20T10:07:15;13.20;99.90
7934;DHT22;4012;48.896;9.192;2023-12-20T10:09:41;13.00;99.90
7934;DHT22;4012;48.896;9.192;2023-12-20T10:12:07;13.50;99.90
7934;DHT22;4012;48.896;9.192;2023-12-20T10:14:33;13.40;99.90
7934;DHT22;4012;48.896;9.192;2023-12-20T10:17:03;13.10;99.90
7934;DHT22;4012;48.896;9.192;2023-12-20T10:19:29;13.50;99.90
7934;DHT22;4012;48.896;9.192;2023-12-20T10:21:54;13.60;99.90
7934;DHT22;4012;48.896;9.192;2023-12-20T10:24:20;13.90;99.90
7934;DHT22;4012;48.896;9.192;2023-12-20T10:26:46;13.40;99.90
7934;DHT22;4012;48.896;9.192;2023-12-20T10:29:11;12.50;99.90
7934;DHT22;4012;48.896;9.192;2023-12-20T10:31:37;12.90;99.90
7934;DHT22;4012;48.896;9.192;2023-12-20T10:34:05;12.70;99.90
7934;DHT22;4012;48.896;9.192;2023-12-20T10:36:32;12.90;99.90
7934;DHT22;4012;48.896;9.192;2023-12-20T10:38:59;13.80;99.90
7934;DHT22;4012;48.896;9.192;2023-12-20T10:41:25;13.70;99.90
7934;DHT22;4012;48.896;9.192;2023-12-20T10:43:56;13.90;99.90
7934;DHT22;4012;48.896;9.192;2023-12-20T10:46:24;13.70;99.90
7934;DHT22;4012;48.896;9.192;2023-12-20T10:48:55;13.00;99.90
7934;DHT22;4012;48.896;9.192;2023-12-20T10:51:21;10.70;99.90
7934;DHT22;4012;48.896;9.192;2023-12-20T10:53:48;10.10;99.90
7934;DHT22;4012;48.896;9.192;2023-12-20T10:56:17;9.70;99.90
7934;DHT22;4012;48.896;9.192;2023-12-20T10:58:48;9.80;99.90
7934;DHT22;4012;48.896;9.192;2023-12-20T11:01:15;10.50;99.90
7934;DHT22;4012;48.896;9.192;2023-12-20T11:03:52;10.40;99.90
7934;DHT22;4012;48.896;9.192;2023-12-20T11:06:43;9.60;99.90
7934;DHT22;4012;48.896;9.192;2023-12-20T11:09:18;9.30;99.90
7934;DHT22;4012;48.896;9.192;2023-12-20T11:12:15;8.90;99.90
7934;DHT22;4012;48.896;9.192;2023-12-20T11:14:53;8.60;99.90
7934;DHT22;4012;48.896;9.192;2023-12-20T11:17:22;8.60;99.90
7934;DHT22;4012;48.896;9.192;2023-12-20T11:22:20;8.40;99.90
7934;DHT22;4012;48.896;9.192;2023-12-20T11:24:46;8.40;99.90
7934;DHT22;4012;48.896;9.192;2023-12-20T11:27:13;8.30;99.90
7934;DHT22;4012;48.896;9.192;2023-12-20T11:29:39;8.10;99.90
7934;DHT22;4012;48.896;9.192;2023-12-20T11:34:50;7.80;99.90
7934;DHT22;4012;48.896;9.192;2023-12-20T11:37:16;7.60;99.90
7934;DHT22;4012;48.896;9.192;2023-12-20T11:39:44;7.80;99.90
7934;DHT22;4012;48.896;9.192;2023-12-20T11:42:10;7.60;99.90
7934;DHT22;4012;48.896;9.192;2023-12-20T11:44:39;7.50;99.90
7934;DHT22;4012;48.896;9.192;2023-12-20T11:47:04;7.50;99.90
7934;DHT22;4012;48.896;9.192;2023-12-20T11:49:30;7.50;99.90
7934;DHT22;4012;48.896;9.192;2023-12-20T11:51:56;7.40;99.90
7934;DHT22;4012;48.896;9.192;2023-12-20T11:54:22;7.30;99.90
7934;DHT22;4012;48.896;9.192;2023-12-20T11:56:48;7.20;99.90
7934;DHT22;4012;48.896;9.192;2023-12-20T11:59:13;7.10;99.90
7934;DHT22;4012;48.896;9.192;2023-12-20T12:01:39;7.10;99.90
7934;DHT22;4012;48.896;9.192;2023-12-20T12:04:05;7.00;99.90
7934;DHT22;4012;48.896;9.192;2023-12-20T12:06:32;7.30;99.90
7934;DHT22;4012;48.896;9.192;2023-12-20T12:08:57;7.50;99.90
7934;DHT22;4012;48.896;9.192;2023-12-20T12:11:23;7.60;99.90
7934;DHT22;4012;48.896;9.192;2023-12-20T12:13:49;7.50;99.90
7934;DHT22;4012;48.896;9.192;2023-12-20T12:16:18;7.40;99.90
7934;DHT22;4012;48.896;9.192;2023-12-20T12:18:45;7.60;99.90
7934;DHT22;4012;48.896;9.192;2023-12-20T12:21:19;7.70;99.90
7934;DHT22;4012;48.896;9.192;2023-12-20T12:23:46;7.80;99.90
7934;DHT22;4012;48.896;9.192;2023-12-20T12:26:11;7.90;99.90
7934;DHT22;4012;48.896;9.192;2023-12-20T12:28:40;8.00;99.90
7934;DHT22;4012;48.896;9.192;2023-12-20T12:31:07;7.80;99.90
7934;DHT22;4012;48.896;9.192;2023-12-20T12:33:33;7.80;99.90
7934;DHT22;4012;48.896;9.192;2023-12-20T12:35:59;7.80;99.90
7934;DHT22;4012;48.896;9.192;2023-12-20T12:38:25;7.90;99.90
7934;DHT22;4012;48.896;9.192;2023-12-20T12:40:51;7.90;99.90
7934;DHT22;4012;48.896;9.192;2023-12-20T12:43:19;7.70;99.90
7934;DHT22;4012;48.896;9.192;2023-12-20T12:45:44;7.90;99.90
7934;DHT22;4012;48.896;9.192;2023-12-20T12:48:10;8.00;99.90
7934;DHT22;4012;48.896;9.192;2023-12-20T12:50:36;7.90;99.90
7934;DHT22;4012;48.896;9.192;2023-12-20T12:53:01;7.70;99.90
7934;DHT22;4012;48.896;9.192;2023-12-20T12:55:28;7.60;99.90
7934;DHT22;4012;48.896;9.192;2023-12-20T12:57:53;7.80;99.90
7934;DHT22;4012;48.896;9.192;2023-12-20T13:00:20;7.60;99.90
7934;DHT22;4012;48.896;9.192;2023-12-20T13:02:45;7.50;99.90
7934;DHT22;4012;48.896;9.192;2023-12-20T13:05:11;7.80;99.90
7934;DHT22;4012;48.896;9.192;2023-12-20T13:07:36;7.70;99.90
7934;DHT22;4012;48.896;9.192;2023-12-20T13:10:03;7.60;99.90
7934;DHT22;4012;48.896;9.192;2023-12-20T13:12:29;7.60;99.90
7934;DHT22;4012;48.896;9.192;2023-12-20T13:14:55;7.60;99.90
7934;DHT22;4012;48.896;9.192;2023-12-20T13:17:21;7.70;99.90
7934;DHT22;4012;48.896;9.192;2023-12-20T13:19:46;7.80;99.90
7934;DHT22;4012;48.896;9.192;2023-12-20T13:22:12;8.30;99.90
7934;DHT22;4012;48.896;9.192;2023-12-20T13:24:37;8.80;99.90
7934;DHT22;4012;48.896;9.192;2023-12-20T13:27:03;9.30;99.90
7934;DHT22;4012;48.896;9.192;2023-12-20T13:29:29;9.30;99.90
7934;DHT22;4012;48.896;9.192;2023-12-20T13:31:54;9.30;99.90
7934;DHT22;4012;48.896;9.192;2023-12-20T13:34:20;9.10;99.90
7934;DHT22;4012;48.896;9.192;2023-12-20T13:36:46;9.00;99.90
7934;DHT22;4012;48.896;9.192;2023-12-20T13:39:13;8.80;99.90
7934;DHT22;4012;48.896;9.192;2023-12-20T13:41:39;8.00;99.90
7934;DHT22;4012;48.896;9.192;2023-12-20T13:44:05;8.10;99.90
7934;DHT22;4012;48.896;9.192;2023-12-20T13:46:31;8.00;99.90
7934;DHT22;4012;48.896;9.192;2023-12-20T13:48:57;8.10;99.90
7934;DHT22;4012;48.896;9.192;2023-12-20T13:51:22;8.00;99.90
7934;DHT22;4012;48.896;9.192;2023-12-20T13:53:48;7.90;99.90
7934;DHT22;4012;48.896;9.192;2023-12-20T13:56:15;7.90;99.90
7934;DHT22;4012;48.896;9.192;2023-12-20T13:58:41;7.60;99.90
7934;DHT22;4012;48.896;9.192;2023-12-20T14:01:11;7.30;99.90
7934;DHT22;4012;48.896;9.192;2023-12-20T14:03:37;7.10;99.90
7934;DHT22;4012;48.896;9.192;2023-12-20T14:06:03;7.00;99.90
7934;DHT22;4012;48.896;9.192;2023-12-20T14:08:29;7.00;99.90
7934;DHT22;4012;48.896;9.192;2023-12-20T14:10:54;6.90;99.90
7934;DHT22;4012;48.896;9.192;2023-12-20T14:13:20;7.30;99.90
7934;DHT22;4012;48.896;9.192;2023-12-20T14:15:46;7.50;99.90
7934;DHT22;4012;48.896;9.192;2023-12-20T14:18:12;7.70;99.90
7934;DHT22;4012;48.896;9.192;2023-12-20T14:20:40;7.70;99.90
7934;DHT22;4012;48.896;9.192;2023-12-20T14:23:08;8.00;99.90
7934;DHT22;4012;48.896;9.192;2023-12-20T14:25:35;8.00;99.90
7934;DHT22;4012;48.896;9.192;2023-12-20T14:28:03;7.80;99.90
7934;DHT22;4012;48.896;9.192;2023-12-20T14:30:28;7.20;99.90
7934;DHT22;4012;48.896;9.192;2023-12-20T14:32:54;6.80;99.90
7934;DHT22;4012;48.896;9.192;2023-12-20T14:35:20;6.70;99.90
7934;DHT22;4012;48.896;9.192;2023-12-20T14:37:45;6.60;99.90
7934;DHT22;4012;48.896;9.192;2023-12-20T14:40:11;6.60;99.90
7934;DHT22;4012;48.896;9.192;2023-12-20T14:42:44;6.40;99.90
7934;DHT22;4012;48.896;9.192;2023-12-20T14:45:09;6.50;99.90
7934;DHT22;4012;48.896;9.192;2023-12-20T14:47:35;6.40;99.90
7934;DHT22;4012;48.896;9.192;2023-12-20T14:50:03;6.40;99.90
7934;DHT22;4012;48.896;9.192;2023-12-20T14:52:29;7.10;99.90
7934;DHT22;4012;48.896;9.192;2023-12-20T14:54:55;7.70;99.90
7934;DHT22;4012;48.896;9.192;2023-12-20T14:57:20;7.40;99.90
7934;DHT22;4012;48.896;9.192;2023-12-20T14:59:46;7.10;99.90
7934;DHT22;4012;48.896;9.192;2023-12-20T15:02:12;6.90;99.90
7934;DHT22;4012;48.896;9.192;2023-12-20T15:04:37;6.80;99.90
7934;DHT22;4012;48.896;9.192;2023-12-20T15:07:03;6.50;99.90
7934;DHT22;4012;48.896;9.192;2023-12-20T15:09:31;6.50;99.90
7934;DHT22;4012;48.896;9.192;2023-12-20T15:11:57;6.40;99.90
7934;DHT22;4012;48.896;9.192;2023-12-20T15:14:23;6.30;99.90
7934;DHT22;4012;48.896;9.192;2023-12-20T15:16:48;6.90;99.90
7934;DHT22;4012;48.896;9.192;2023-12-20T15:19:15;6.80;99.90
7934;DHT22;4012;48.896;9.192;2023-12-20T15:21:41;6.70;99.90
7934;DHT22;4012;48.896;9.192;2023-12-20T15:24:11;6.50;99.90
7934;DHT22;4012;48.896;9.192;2023-12-20T15:26:42;6.40;99.90
7934;DHT22;4012;48.896;9.192;2023-12-20T15:29:08;6.30;99.90
7934;DHT22;4012;48.896;9.192;2023-12-20T15:31:51;6.20;99.90
7934;DHT22;4012;48.896;9.192;2023-12-20T15:34:16;6.40;99.90
7934;DHT22;4012;48.896;9.192;2023-12-20T15:36:42;6.60;99.90
7934;DHT22;4012;48.896;9.192;2023-12-20T15:39:08;6.80;99.90
7934;DHT22;4012;48.896;9.192;2023-12-20T15:41:34;7.00;99.90
7934;DHT22;4012;48.896;9.192;2023-12-20T15:44:00;7.30;99.90
7934;DHT22;4012;48.896;9.192;2023-12-20T15:46:26;7.10;99.90
7934;DHT22;4012;48.896;9.192;2023-12-20T15:48:51;6.90;99.90
7934;DHT22;4012;48.896;9.192;2023-12-20T15:51:20;6.50;99.90
7934;DHT22;4012;48.896;9.192;2023-12-20T15:53:46;6.70;99.90
7934;DHT22;4012;48.896;9.192;2023-12-20T15:56:11;6.60;99.90
7934;DHT22;4012;48.896;9.192;2023-12-20T15:58:38;6.50;99.90
7934;DHT22;4012;48.896;9.192;2023-12-20T16:01:04;6.40;99.90
7934;DHT22;4012;48.896;9.192;2023-12-20T16:03:30;6.40;99.90
7934;DHT22;4012;48.896;9.192;2023-12-20T16:05:55;6.60;99.90
7934;DHT22;4012;48.896;9.192;2023-12-20T16:08:21;6.50;99.90
7934;DHT22;4012;48.896;9.192;2023-12-20T16:10:47;6.40;99.90
7934;DHT22;4012;48.896;9.192;2023-12-20T16:13:12;6.40;99.90
7934;DHT22;4012;48.896;9.192;2023-12-20T16:15:38;6.30;99.90
7934;DHT22;4012;48.896;9.192;2023-12-20T16:18:04;6.30;99.90